Jupiter, FL (33458)

12:37 AM EDT on July 04, 2015 (GMT -0400)
Pennock Ln. | | Change Station
CLOSE
Current Station
Personal Weather Station
Location: Jupiter, FL
Elevation: 20 ft
Nearby Weather Stations

Elev 20 ft 26.94 °N, 80.11 °W | Updated 21 seconds ago

Partly Cloudy
Partly Cloudy
80.0 °F
Feels Like 85 °F
N
0.0
Wind Variable Wind from SSE
Gusts 0.0 mph

Today
High -- | Low -- °F
--% Chance of Precip.
Yesterday
High -- | Low -- °F
Precip. -- in
6:31 AM 8:18 PM
Waning Gibbous, 94% visible
Pressure 30.13 in
Visibility 10.0 miles
Clouds Scattered Clouds 2100 ft
Scattered Clouds 4000 ft
Mostly Cloudy 25000 ft
Heat Index 85 °F
Dew Point 75 °F
Humidity 84%
Rainfall 0.00 in
Snow Depth Not available.
UV 0.0 out of 12
Pollen 4.40 out of 12
Air Quality Not available.
Flu Activity Not available.
METAR KPBI 040353Z 12007KT 10SM TS SCT021CB SCT040 BKN250 28/24 A3013 RMK AO2 TSB31 SLP202 FRQ LTGCCICCG SE-SW TS SE-SW MOV N T02830239 $

More Conditions Fewer Conditions

Pressure 30.13 in
Visibility 10.0 miles
Clouds Scattered Clouds 2100 ft
Scattered Clouds 4000 ft
Mostly Cloudy 25000 ft
Heat Index 85 °F
Dew Point 75 °F
Humidity 84%
Rainfall 0.00 in
Snow Depth Not available.
UV 0.0 out of 12
Pollen 4.40 out of 12
Air Quality Not available.
Flu Activity Not available.
METAR KPBI 040353Z 12007KT 10SM TS SCT021CB SCT040 BKN250 28/24 A3013 RMK AO2 TSB31 SLP202 FRQ LTGCCICCG SE-SW TS SE-SW MOV N T02830239 $

More Conditions Fewer Conditions

Nowcast | as of 12:29 am EDT on July 4, 2015

At 1227 am EDT...Doppler radar indicated a line of thunderstorms... along a line extending from Ocean Ridge to near Mission Bay moving northwest at 10 mph. Frequent cloud to ground lightning...torrential downpours...and wind gusts to 35 mph can be expected. Locations impacted include... West Palm Beach...Boca Raton...Boynton Beach...Delray Beach... Wellington...Lake Worth...Palm Beach...Greenacres...Royal Palm Beach...and Palm Springs.

×

10-Day Weather Forecast

×

Almanac

Astronomy

Jul. 04, 2015 Rise Set
Actual Time
Civil Twilight
Nautical Twilight
Astronomical Twilight
Moon
Length of Visible Light
Length of Day
Tomorrow will be .
, % of the Moon is Illuminated

Today's Extremes

State Highs State Lows

Community

WunderPhotos

Upload Photos

1,834,931 photos uploaded!

WunderBlogs® & News

Nearby

Air Quality

  Air Quality AQ Index Pollutant
Not available.

Snow Depth

Station Depth Elevation

Earthquake Activity

City Distance Mag. Time & Date
Minimum magnitude displayed is 2.5.

Coastal Water Temperatures

Place Temperature

Stations

Nearby Weather Stations

Station Location Temp. Windchill Dew Point Humidity Wind Precip. Elev Updated Type